Terminal Aerodrome Forecast
Issued by NWS

Home | Current Version | Previous Version | Text Only | Print | Product List | Glossary On
Versions: 1 2 3 4 5 6 7 8 9 10 11 12 13 14 15 16
000
FTUS41 KBTV 260537
TAFMSS
TAF
KMSS 260537Z 2606/2706 23014G24KT P6SM BKN050
     FM261200 23010G20KT P6SM SCT030 OVC040
     FM262000 24010KT P6SM BKN035
     FM270000 23006KT P6SM SCT025 OVC035=

USA.gov is the U.S. government's official web portal to all federal, state and local government web resources and services.